sensor_id;sensor_type;location;lat;lon;timestamp;temperature;humidity
7498;DHT22;3790;48.806;9.140;2023-04-19T00:02:13;9.90;99.90
7498;DHT22;3790;48.806;9.140;2023-04-19T00:07:14;9.80;99.90
7498;DHT22;3790;48.806;9.140;2023-04-19T00:12:16;9.80;99.90
7498;DHT22;3790;48.806;9.140;2023-04-19T00:17:16;9.70;99.90
7498;DHT22;3790;48.806;9.140;2023-04-19T00:22:17;9.60;99.90
7498;DHT22;3790;48.806;9.140;2023-04-19T00:27:18;9.60;99.90
7498;DHT22;3790;48.806;9.140;2023-04-19T00:32:18;9.60;99.90
7498;DHT22;3790;48.806;9.140;2023-04-19T00:37:19;9.60;99.90
7498;DHT22;3790;48.806;9.140;2023-04-19T00:42:20;9.60;99.90
7498;DHT22;3790;48.806;9.140;2023-04-19T00:47:20;9.60;99.90
7498;DHT22;3790;48.806;9.140;2023-04-19T00:52:22;9.60;99.90
7498;DHT22;3790;48.806;9.140;2023-04-19T00:57:23;9.60;99.90
7498;DHT22;3790;48.806;9.140;2023-04-19T01:02:24;9.50;99.90
7498;DHT22;3790;48.806;9.140;2023-04-19T01:07:25;9.40;99.90
7498;DHT22;3790;48.806;9.140;2023-04-19T01:12:26;9.50;99.90
7498;DHT22;3790;48.806;9.140;2023-04-19T01:17:27;9.40;99.90
7498;DHT22;3790;48.806;9.140;2023-04-19T01:22:28;9.30;99.90
7498;DHT22;3790;48.806;9.140;2023-04-19T01:27:29;9.40;99.90
7498;DHT22;3790;48.806;9.140;2023-04-19T01:32:30;9.30;99.90
7498;DHT22;3790;48.806;9.140;2023-04-19T01:37:34;9.30;99.90
7498;DHT22;3790;48.806;9.140;2023-04-19T01:42:34;9.30;99.90
7498;DHT22;3790;48.806;9.140;2023-04-19T01:47:35;9.40;99.90
7498;DHT22;3790;48.806;9.140;2023-04-19T01:52:35;9.30;99.90
7498;DHT22;3790;48.806;9.140;2023-04-19T01:57:36;9.30;99.90
7498;DHT22;3790;48.806;9.140;2023-04-19T02:02:37;9.30;99.90
7498;DHT22;3790;48.806;9.140;2023-04-19T02:07:37;9.30;99.90
7498;DHT22;3790;48.806;9.140;2023-04-19T02:12:39;9.40;99.90
7498;DHT22;3790;48.806;9.140;2023-04-19T02:17:39;9.40;99.90
7498;DHT22;3790;48.806;9.140;2023-04-19T02:22:40;9.40;99.90
7498;DHT22;3790;48.806;9.140;2023-04-19T02:27:40;9.30;99.90
7498;DHT22;3790;48.806;9.140;2023-04-19T02:32:41;9.30;99.90
7498;DHT22;3790;48.806;9.140;2023-04-19T02:37:42;9.30;99.90
7498;DHT22;3790;48.806;9.140;2023-04-19T02:42:43;9.40;99.90
7498;DHT22;3790;48.806;9.140;2023-04-19T02:47:44;9.40;99.90
7498;DHT22;3790;48.806;9.140;2023-04-19T02:52:45;9.50;99.90
7498;DHT22;3790;48.806;9.140;2023-04-19T02:57:46;9.50;99.90
7498;DHT22;3790;48.806;9.140;2023-04-19T03:02:46;9.60;99.90
7498;DHT22;3790;48.806;9.140;2023-04-19T03:07:47;9.60;99.90
7498;DHT22;3790;48.806;9.140;2023-04-19T03:12:50;9.50;99.90
7498;DHT22;3790;48.806;9.140;2023-04-19T03:17:53;9.40;99.90
7498;DHT22;3790;48.806;9.140;2023-04-19T03:22:53;9.20;99.90
7498;DHT22;3790;48.806;9.140;2023-04-19T03:27:55;9.10;99.90
7498;DHT22;3790;48.806;9.140;2023-04-19T03:32:55;9.10;99.90
7498;DHT22;3790;48.806;9.140;2023-04-19T03:37:57;9.10;99.90
7498;DHT22;3790;48.806;9.140;2023-04-19T03:42:58;9.00;99.90
7498;DHT22;3790;48.806;9.140;2023-04-19T03:47:58;9.00;99.90
7498;DHT22;3790;48.806;9.140;2023-04-19T03:52:59;8.90;99.90
7498;DHT22;3790;48.806;9.140;2023-04-19T03:58:00;8.90;99.90
7498;DHT22;3790;48.806;9.140;2023-04-19T04:03:00;8.80;99.90
7498;DHT22;3790;48.806;9.140;2023-04-19T04:08:01;8.80;99.90
7498;DHT22;3790;48.806;9.140;2023-04-19T04:13:01;8.60;99.90
7498;DHT22;3790;48.806;9.140;2023-04-19T04:18:02;8.40;99.90
7498;DHT22;3790;48.806;9.140;2023-04-19T04:23:02;8.30;99.90
7498;DHT22;3790;48.806;9.140;2023-04-19T04:28:03;8.40;99.90
7498;DHT22;3790;48.806;9.140;2023-04-19T04:33:04;8.60;99.90
7498;DHT22;3790;48.806;9.140;2023-04-19T04:38:04;8.80;99.90
7498;DHT22;3790;48.806;9.140;2023-04-19T04:43:06;9.00;99.90
7498;DHT22;3790;48.806;9.140;2023-04-19T04:48:07;9.00;99.90
7498;DHT22;3790;48.806;9.140;2023-04-19T04:53:08;8.90;99.90
7498;DHT22;3790;48.806;9.140;2023-04-19T04:58:09;8.90;99.90
7498;DHT22;3790;48.806;9.140;2023-04-19T05:03:09;9.00;99.90
7498;DHT22;3790;48.806;9.140;2023-04-19T05:08:10;9.10;99.90
7498;DHT22;3790;48.806;9.140;2023-04-19T05:13:10;8.90;99.90
7498;DHT22;3790;48.806;9.140;2023-04-19T05:18:11;8.90;99.90
7498;DHT22;3790;48.806;9.140;2023-04-19T05:23:11;8.90;99.90
7498;DHT22;3790;48.806;9.140;2023-04-19T05:28:12;9.10;99.90
7498;DHT22;3790;48.806;9.140;2023-04-19T05:33:13;9.30;99.90
7498;DHT22;3790;48.806;9.140;2023-04-19T05:38:13;9.20;99.90
7498;DHT22;3790;48.806;9.140;2023-04-19T05:43:14;9.10;99.90
7498;DHT22;3790;48.806;9.140;2023-04-19T05:48:14;9.10;99.90
7498;DHT22;3790;48.806;9.140;2023-04-19T05:53:15;9.20;99.90
7498;DHT22;3790;48.806;9.140;2023-04-19T05:58:15;9.40;99.90
7498;DHT22;3790;48.806;9.140;2023-04-19T06:03:16;9.40;99.90
7498;DHT22;3790;48.806;9.140;2023-04-19T06:08:16;9.40;99.90
7498;DHT22;3790;48.806;9.140;2023-04-19T06:13:18;9.60;99.90
7498;DHT22;3790;48.806;9.140;2023-04-19T06:18:19;9.70;99.90
7498;DHT22;3790;48.806;9.140;2023-04-19T06:23:19;9.80;99.90
7498;DHT22;3790;48.806;9.140;2023-04-19T06:28:20;10.10;99.90
7498;DHT22;3790;48.806;9.140;2023-04-19T06:33:20;10.30;99.90
7498;DHT22;3790;48.806;9.140;2023-04-19T06:38:21;10.60;99.90
7498;DHT22;3790;48.806;9.140;2023-04-19T06:43:21;11.20;99.90
7498;DHT22;3790;48.806;9.140;2023-04-19T06:48:22;11.20;99.90
7498;DHT22;3790;48.806;9.140;2023-04-19T06:53:22;11.30;99.90
7498;DHT22;3790;48.806;9.140;2023-04-19T06:58:23;11.90;99.90
7498;DHT22;3790;48.806;9.140;2023-04-19T07:03:23;12.20;99.90
7498;DHT22;3790;48.806;9.140;2023-04-19T07:08:25;12.20;99.90
7498;DHT22;3790;48.806;9.140;2023-04-19T07:13:25;12.40;99.90
7498;DHT22;3790;48.806;9.140;2023-04-19T07:18:26;12.20;99.90
7498;DHT22;3790;48.806;9.140;2023-04-19T07:23:26;12.20;99.90
7498;DHT22;3790;48.806;9.140;2023-04-19T07:28:30;12.00;99.90
7498;DHT22;3790;48.806;9.140;2023-04-19T07:33:31;12.10;99.90
7498;DHT22;3790;48.806;9.140;2023-04-19T07:38:31;12.10;99.90
7498;DHT22;3790;48.806;9.140;2023-04-19T07:43:32;12.10;99.90
7498;DHT22;3790;48.806;9.140;2023-04-19T07:48:33;12.40;99.90
7498;DHT22;3790;48.806;9.140;2023-04-19T07:53:33;12.70;99.90
7498;DHT22;3790;48.806;9.140;2023-04-19T07:58:35;13.30;99.90
7498;DHT22;3790;48.806;9.140;2023-04-19T08:03:36;13.10;99.90
7498;DHT22;3790;48.806;9.140;2023-04-19T08:08:36;12.90;99.90
7498;DHT22;3790;48.806;9.140;2023-04-19T08:13:37;13.00;99.90
7498;DHT22;3790;48.806;9.140;2023-04-19T08:18:37;13.20;99.90
7498;DHT22;3790;48.806;9.140;2023-04-19T08:23:38;13.00;99.90
7498;DHT22;3790;48.806;9.140;2023-04-19T08:28:39;13.30;99.90
7498;DHT22;3790;48.806;9.140;2023-04-19T08:33:39;13.30;99.90
7498;DHT22;3790;48.806;9.140;2023-04-19T08:38:40;13.00;99.90
7498;DHT22;3790;48.806;9.140;2023-04-19T08:43:42;13.40;99.90
7498;DHT22;3790;48.806;9.140;2023-04-19T08:48:44;14.00;99.90
7498;DHT22;3790;48.806;9.140;2023-04-19T08:53:46;14.10;99.90
7498;DHT22;3790;48.806;9.140;2023-04-19T08:58:57;14.40;99.90
7498;DHT22;3790;48.806;9.140;2023-04-19T09:04:07;14.70;99.90
7498;DHT22;3790;48.806;9.140;2023-04-19T09:14:18;15.00;99.90
7498;DHT22;3790;48.806;9.140;2023-04-19T09:19:18;14.60;99.90
7498;DHT22;3790;48.806;9.140;2023-04-19T09:24:37;14.50;99.90
7498;DHT22;3790;48.806;9.140;2023-04-19T09:29:38;14.40;99.90
7498;DHT22;3790;48.806;9.140;2023-04-19T09:34:53;14.70;99.90
7498;DHT22;3790;48.806;9.140;2023-04-19T09:39:53;14.80;99.90
7498;DHT22;3790;48.806;9.140;2023-04-19T09:44:58;15.30;99.90
7498;DHT22;3790;48.806;9.140;2023-04-19T09:50:06;15.60;99.90
7498;DHT22;3790;48.806;9.140;2023-04-19T09:55:08;16.10;99.90
7498;DHT22;3790;48.806;9.140;2023-04-19T10:00:09;16.30;99.90
7498;DHT22;3790;48.806;9.140;2023-04-19T10:05:14;16.00;99.90
7498;DHT22;3790;48.806;9.140;2023-04-19T10:10:16;15.90;99.90
7498;DHT22;3790;48.806;9.140;2023-04-19T10:15:18;15.60;99.90
7498;DHT22;3790;48.806;9.140;2023-04-19T10:20:24;15.70;99.90
7498;DHT22;3790;48.806;9.140;2023-04-19T10:25:29;15.80;99.90
7498;DHT22;3790;48.806;9.140;2023-04-19T10:30:29;15.80;99.90
7498;DHT22;3790;48.806;9.140;2023-04-19T10:35:36;15.60;99.90
7498;DHT22;3790;48.806;9.140;2023-04-19T10:40:54;14.80;99.90
7498;DHT22;3790;48.806;9.140;2023-04-19T10:51:31;13.80;99.90
7498;DHT22;3790;48.806;9.140;2023-04-19T11:01:33;14.30;99.90
7498;DHT22;3790;48.806;9.140;2023-04-19T11:12:05;15.00;99.90
7498;DHT22;3790;48.806;9.140;2023-04-19T11:17:18;14.60;99.90
7498;DHT22;3790;48.806;9.140;2023-04-19T11:22:33;13.80;99.90
7498;DHT22;3790;48.806;9.140;2023-04-19T11:27:34;13.30;99.90
7498;DHT22;3790;48.806;9.140;2023-04-19T11:32:35;12.60;99.90
7498;DHT22;3790;48.806;9.140;2023-04-19T11:37:37;12.30;99.90
7498;DHT22;3790;48.806;9.140;2023-04-19T11:42:40;12.10;99.90
7498;DHT22;3790;48.806;9.140;2023-04-19T11:47:47;11.70;99.90
7498;DHT22;3790;48.806;9.140;2023-04-19T11:52:48;11.30;99.90
7498;DHT22;3790;48.806;9.140;2023-04-19T11:57:49;11.20;99.90
7498;DHT22;3790;48.806;9.140;2023-04-19T12:02:50;10.90;99.90
7498;DHT22;3790;48.806;9.140;2023-04-19T12:08:05;10.30;99.90
7498;DHT22;3790;48.806;9.140;2023-04-19T12:13:15;10.20;99.90
7498;DHT22;3790;48.806;9.140;2023-04-19T12:18:16;9.80;99.90
7498;DHT22;3790;48.806;9.140;2023-04-19T12:23:18;9.80;99.90
7498;DHT22;3790;48.806;9.140;2023-04-19T12:28:18;9.70;99.90
7498;DHT22;3790;48.806;9.140;2023-04-19T12:33:19;9.50;99.90
7498;DHT22;3790;48.806;9.140;2023-04-19T12:38:20;9.40;99.90
7498;DHT22;3790;48.806;9.140;2023-04-19T12:43:20;9.20;99.90
7498;DHT22;3790;48.806;9.140;2023-04-19T12:48:20;9.10;99.90
7498;DHT22;3790;48.806;9.140;2023-04-19T12:53:23;9.10;99.90
7498;DHT22;3790;48.806;9.140;2023-04-19T12:58:24;9.30;99.90
7498;DHT22;3790;48.806;9.140;2023-04-19T13:03:25;9.30;99.90
7498;DHT22;3790;48.806;9.140;2023-04-19T13:08:26;9.30;99.90
7498;DHT22;3790;48.806;9.140;2023-04-19T13:13:26;9.20;99.90
7498;DHT22;3790;48.806;9.140;2023-04-19T13:18:27;9.20;99.90
7498;DHT22;3790;48.806;9.140;2023-04-19T13:23:27;9.20;99.90
7498;DHT22;3790;48.806;9.140;2023-04-19T13:28:28;9.20;99.90
7498;DHT22;3790;48.806;9.140;2023-04-19T13:33:29;9.50;99.90
7498;DHT22;3790;48.806;9.140;2023-04-19T13:38:30;9.60;99.90
7498;DHT22;3790;48.806;9.140;2023-04-19T13:43:30;9.70;99.90
7498;DHT22;3790;48.806;9.140;2023-04-19T13:48:31;9.90;99.90
7498;DHT22;3790;48.806;9.140;2023-04-19T13:53:32;10.00;99.90
7498;DHT22;3790;48.806;9.140;2023-04-19T13:58:32;10.40;99.90
7498;DHT22;3790;48.806;9.140;2023-04-19T14:03:33;11.00;99.90
7498;DHT22;3790;48.806;9.140;2023-04-19T14:08:33;12.10;99.90
7498;DHT22;3790;48.806;9.140;2023-04-19T14:13:34;12.90;99.90
7498;DHT22;3790;48.806;9.140;2023-04-19T14:18:34;13.70;99.90
7498;DHT22;3790;48.806;9.140;2023-04-19T14:23:34;14.50;99.90
7498;DHT22;3790;48.806;9.140;2023-04-19T14:28:35;15.40;99.90
7498;DHT22;3790;48.806;9.140;2023-04-19T14:33:35;16.20;99.90
7498;DHT22;3790;48.806;9.140;2023-04-19T14:38:36;15.40;99.90
7498;DHT22;3790;48.806;9.140;2023-04-19T14:43:36;14.70;99.90
7498;DHT22;3790;48.806;9.140;2023-04-19T14:48:39;15.00;99.90
7498;DHT22;3790;48.806;9.140;2023-04-19T14:53:40;15.50;99.90
7498;DHT22;3790;48.806;9.140;2023-04-19T14:58:40;15.50;99.90
7498;DHT22;3790;48.806;9.140;2023-04-19T15:03:41;15.20;99.90
7498;DHT22;3790;48.806;9.140;2023-04-19T15:08:41;14.80;99.90
7498;DHT22;3790;48.806;9.140;2023-04-19T15:13:42;13.90;99.90
7498;DHT22;3790;48.806;9.140;2023-04-19T15:18:42;13.20;99.90
7498;DHT22;3790;48.806;9.140;2023-04-19T15:23:43;12.80;99.90
7498;DHT22;3790;48.806;9.140;2023-04-19T15:28:43;13.10;99.90
7498;DHT22;3790;48.806;9.140;2023-04-19T15:33:44;13.30;99.90
7498;DHT22;3790;48.806;9.140;2023-04-19T15:38:46;13.60;99.90
7498;DHT22;3790;48.806;9.140;2023-04-19T15:43:46;14.20;99.90
7498;DHT22;3790;48.806;9.140;2023-04-19T15:48:47;14.60;99.90
7498;DHT22;3790;48.806;9.140;2023-04-19T15:53:47;16.90;99.90
7498;DHT22;3790;48.806;9.140;2023-04-19T15:58:48;16.70;99.90
7498;DHT22;3790;48.806;9.140;2023-04-19T16:03:48;16.60;99.90
7498;DHT22;3790;48.806;9.140;2023-04-19T16:08:49;17.10;99.90
7498;DHT22;3790;48.806;9.140;2023-04-19T16:13:50;16.60;99.90
7498;DHT22;3790;48.806;9.140;2023-04-19T16:18:50;18.30;99.90
7498;DHT22;3790;48.806;9.140;2023-04-19T16:23:51;22.10;99.90
7498;DHT22;3790;48.806;9.140;2023-04-19T16:28:51;20.90;99.90
7498;DHT22;3790;48.806;9.140;2023-04-19T16:33:52;20.30;99.90
7498;DHT22;3790;48.806;9.140;2023-04-19T16:38:52;17.80;99.90
7498;DHT22;3790;48.806;9.140;2023-04-19T16:43:53;17.00;99.90
7498;DHT22;3790;48.806;9.140;2023-04-19T16:48:53;17.80;99.90
7498;DHT22;3790;48.806;9.140;2023-04-19T16:53:54;20.90;99.90
7498;DHT22;3790;48.806;9.140;2023-04-19T16:58:55;22.30;99.90
7498;DHT22;3790;48.806;9.140;2023-04-19T17:03:55;24.30;99.90
7498;DHT22;3790;48.806;9.140;2023-04-19T17:08:56;24.60;98.20
7498;DHT22;3790;48.806;9.140;2023-04-19T17:13:57;19.00;98.40
7498;DHT22;3790;48.806;9.140;2023-04-19T17:18:58;16.00;99.90
7498;DHT22;3790;48.806;9.140;2023-04-19T17:23:58;14.50;99.90
7498;DHT22;3790;48.806;9.140;2023-04-19T17:28:59;13.60;99.90
7498;DHT22;3790;48.806;9.140;2023-04-19T17:34:00;13.00;99.90
7498;DHT22;3790;48.806;9.140;2023-04-19T17:39:00;12.60;99.90
7498;DHT22;3790;48.806;9.140;2023-04-19T17:44:01;12.10;99.90
7498;DHT22;3790;48.806;9.140;2023-04-19T17:49:01;11.60;99.90
7498;DHT22;3790;48.806;9.140;2023-04-19T17:54:02;11.10;99.90
7498;DHT22;3790;48.806;9.140;2023-04-19T17:59:02;10.70;99.90
7498;DHT22;3790;48.806;9.140;2023-04-19T18:04:03;10.50;99.90
7498;DHT22;3790;48.806;9.140;2023-04-19T18:09:06;10.50;99.90
7498;DHT22;3790;48.806;9.140;2023-04-19T18:14:07;10.30;99.90
7498;DHT22;3790;48.806;9.140;2023-04-19T18:19:07;10.10;99.90
7498;DHT22;3790;48.806;9.140;2023-04-19T18:24:08;9.90;99.90
7498;DHT22;3790;48.806;9.140;2023-04-19T18:29:09;9.90;99.90
7498;DHT22;3790;48.806;9.140;2023-04-19T18:34:09;9.80;99.90
7498;DHT22;3790;48.806;9.140;2023-04-19T18:39:10;9.80;99.90
7498;DHT22;3790;48.806;9.140;2023-04-19T18:44:12;9.60;99.90
7498;DHT22;3790;48.806;9.140;2023-04-19T18:49:12;9.50;99.90
7498;DHT22;3790;48.806;9.140;2023-04-19T18:54:13;9.10;99.90
7498;DHT22;3790;48.806;9.140;2023-04-19T18:59:13;8.90;99.90
7498;DHT22;3790;48.806;9.140;2023-04-19T19:04:19;8.60;99.90
7498;DHT22;3790;48.806;9.140;2023-04-19T19:09:20;8.40;99.90
7498;DHT22;3790;48.806;9.140;2023-04-19T19:14:22;8.20;99.90
7498;DHT22;3790;48.806;9.140;2023-04-19T19:19:22;8.00;99.90
7498;DHT22;3790;48.806;9.140;2023-04-19T19:24:23;7.80;99.90
7498;DHT22;3790;48.806;9.140;2023-04-19T19:29:24;7.70;99.90
7498;DHT22;3790;48.806;9.140;2023-04-19T19:34:25;7.40;99.90
7498;DHT22;3790;48.806;9.140;2023-04-19T19:39:25;7.40;99.90
7498;DHT22;3790;48.806;9.140;2023-04-19T19:44:26;7.20;99.90
7498;DHT22;3790;48.806;9.140;2023-04-19T19:49:26;7.10;99.90
7498;DHT22;3790;48.806;9.140;2023-04-19T19:54:27;6.90;99.90
7498;DHT22;3790;48.806;9.140;2023-04-19T19:59:31;6.80;99.90
7498;DHT22;3790;48.806;9.140;2023-04-19T20:04:34;6.70;99.90
7498;DHT22;3790;48.806;9.140;2023-04-19T20:09:37;6.60;99.90
7498;DHT22;3790;48.806;9.140;2023-04-19T20:14:38;6.50;99.90
7498;DHT22;3790;48.806;9.140;2023-04-19T20:19:39;6.30;99.90
7498;DHT22;3790;48.806;9.140;2023-04-19T20:24:41;6.20;99.90
7498;DHT22;3790;48.806;9.140;2023-04-19T20:29:58;6.00;99.90
7498;DHT22;3790;48.806;9.140;2023-04-19T20:35:03;5.80;99.90
7498;DHT22;3790;48.806;9.140;2023-04-19T20:40:12;5.60;99.90
7498;DHT22;3790;48.806;9.140;2023-04-19T20:45:14;5.50;99.90
7498;DHT22;3790;48.806;9.140;2023-04-19T20:50:14;5.40;99.90
7498;DHT22;3790;48.806;9.140;2023-04-19T20:55:15;5.50;99.90
7498;DHT22;3790;48.806;9.140;2023-04-19T21:00:16;5.40;99.90
7498;DHT22;3790;48.806;9.140;2023-04-19T21:05:16;5.40;99.90
7498;DHT22;3790;48.806;9.140;2023-04-19T21:10:18;5.30;99.90
7498;DHT22;3790;48.806;9.140;2023-04-19T21:15:18;5.20;99.90
7498;DHT22;3790;48.806;9.140;2023-04-19T21:20:19;5.40;99.90
7498;DHT22;3790;48.806;9.140;2023-04-19T21:25:19;5.30;99.90
7498;DHT22;3790;48.806;9.140;2023-04-19T21:30:20;5.20;99.90
7498;DHT22;3790;48.806;9.140;2023-04-19T21:35:22;5.20;99.90
7498;DHT22;3790;48.806;9.140;2023-04-19T21:40:22;5.30;99.90
7498;DHT22;3790;48.806;9.140;2023-04-19T21:45:23;5.20;99.90
7498;DHT22;3790;48.806;9.140;2023-04-19T21:50:23;5.00;99.90
7498;DHT22;3790;48.806;9.140;2023-04-19T21:55:24;4.90;99.90
7498;DHT22;3790;48.806;9.140;2023-04-19T22:00:25;4.80;99.90
7498;DHT22;3790;48.806;9.140;2023-04-19T22:05:25;4.80;99.90
7498;DHT22;3790;48.806;9.140;2023-04-19T22:10:27;4.80;99.90
7498;DHT22;3790;48.806;9.140;2023-04-19T22:15:28;4.70;99.90
7498;DHT22;3790;48.806;9.140;2023-04-19T22:20:28;4.50;99.90
7498;DHT22;3790;48.806;9.140;2023-04-19T22:25:31;4.50;99.90
7498;DHT22;3790;48.806;9.140;2023-04-19T22:30:31;4.40;99.90
7498;DHT22;3790;48.806;9.140;2023-04-19T22:35:34;4.40;99.90
7498;DHT22;3790;48.806;9.140;2023-04-19T22:40:35;4.40;99.90
7498;DHT22;3790;48.806;9.140;2023-04-19T22:45:38;4.40;99.90
7498;DHT22;3790;48.806;9.140;2023-04-19T22:50:39;4.30;99.90
7498;DHT22;3790;48.806;9.140;2023-04-19T22:55:41;4.30;99.90
7498;DHT22;3790;48.806;9.140;2023-04-19T23:00:42;4.10;99.90
7498;DHT22;3790;48.806;9.140;2023-04-19T23:05:42;4.10;99.90
7498;DHT22;3790;48.806;9.140;2023-04-19T23:10:43;4.00;99.90
7498;DHT22;3790;48.806;9.140;2023-04-19T23:15:45;3.90;99.90
7498;DHT22;3790;48.806;9.140;2023-04-19T23:20:46;3.70;99.90
7498;DHT22;3790;48.806;9.140;2023-04-19T23:25:47;3.60;99.90
7498;DHT22;3790;48.806;9.140;2023-04-19T23:30:47;3.40;99.90
7498;DHT22;3790;48.806;9.140;2023-04-19T23:35:48;3.30;99.90
7498;DHT22;3790;48.806;9.140;2023-04-19T23:40:48;3.30;99.90
7498;DHT22;3790;48.806;9.140;2023-04-19T23:45:49;3.20;99.90
7498;DHT22;3790;48.806;9.140;2023-04-19T23:50:49;3.20;99.90
7498;DHT22;3790;48.806;9.140;2023-04-19T23:55:50;3.30;99.90
